sensor_id;sensor_type;location;lat;lon;timestamp;P1;durP1;ratioP1;P2;durP2;ratioP2
6017;SDS011;3037;51.068;13.780;2023-02-21T00:02:35;3.63;;;2.87;;
6017;SDS011;3037;51.068;13.780;2023-02-21T00:05:19;3.70;;;2.77;;
6017;SDS011;3037;51.068;13.780;2023-02-21T00:08:03;2.97;;;2.80;;
6017;SDS011;3037;51.068;13.780;2023-02-21T00:10:47;3.70;;;3.40;;
6017;SDS011;3037;51.068;13.780;2023-02-21T00:13:34;3.07;;;2.87;;
6017;SDS011;3037;51.068;13.780;2023-02-21T00:16:19;3.70;;;3.40;;
6017;SDS011;3037;51.068;13.780;2023-02-21T00:19:03;4.43;;;3.50;;
6017;SDS011;3037;51.068;13.780;2023-02-21T00:21:47;3.63;;;2.90;;
6017;SDS011;3037;51.068;13.780;2023-02-21T00:24:31;3.47;;;3.17;;
6017;SDS011;3037;51.068;13.780;2023-02-21T00:27:15;3.50;;;3.30;;
6017;SDS011;3037;51.068;13.780;2023-02-21T00:29:59;3.70;;;3.40;;
6017;SDS011;3037;51.068;13.780;2023-02-21T00:32:43;3.43;;;3.23;;
6017;SDS011;3037;51.068;13.780;2023-02-21T00:35:27;3.60;;;3.40;;
6017;SDS011;3037;51.068;13.780;2023-02-21T00:38:11;3.67;;;3.30;;
6017;SDS011;3037;51.068;13.780;2023-02-21T00:40:55;3.60;;;3.30;;
6017;SDS011;3037;51.068;13.780;2023-02-21T00:43:40;3.67;;;3.47;;
6017;SDS011;3037;51.068;13.780;2023-02-21T00:46:24;5.90;;;3.50;;
6017;SDS011;3037;51.068;13.780;2023-02-21T00:49:08;4.67;;;4.27;;
6017;SDS011;3037;51.068;13.780;2023-02-21T00:51:52;3.53;;;3.10;;
6017;SDS011;3037;51.068;13.780;2023-02-21T00:54:36;3.17;;;3.03;;
6017;SDS011;3037;51.068;13.780;2023-02-21T00:57:20;3.73;;;3.00;;
6017;SDS011;3037;51.068;13.780;2023-02-21T01:00:05;6.20;;;3.00;;
6017;SDS011;3037;51.068;13.780;2023-02-21T01:02:51;5.90;;;3.23;;
6017;SDS011;3037;51.068;13.780;2023-02-21T01:05:35;3.10;;;2.90;;
6017;SDS011;3037;51.068;13.780;2023-02-21T01:08:19;3.53;;;3.23;;
6017;SDS011;3037;51.068;13.780;2023-02-21T01:11:03;4.23;;;3.20;;
6017;SDS011;3037;51.068;13.780;2023-02-21T01:13:47;3.40;;;3.00;;
6017;SDS011;3037;51.068;13.780;2023-02-21T01:16:31;3.40;;;3.20;;
6017;SDS011;3037;51.068;13.780;2023-02-21T01:19:16;6.43;;;2.87;;
6017;SDS011;3037;51.068;13.780;2023-02-21T01:22:01;5.67;;;3.23;;
6017;SDS011;3037;51.068;13.780;2023-02-21T01:24:49;4.10;;;3.47;;
6017;SDS011;3037;51.068;13.780;2023-02-21T01:27:34;3.00;;;2.70;;
6017;SDS011;3037;51.068;13.780;2023-02-21T01:30:18;3.10;;;2.80;;
6017;SDS011;3037;51.068;13.780;2023-02-21T01:33:02;3.23;;;2.87;;
6017;SDS011;3037;51.068;13.780;2023-02-21T01:35:46;2.53;;;2.33;;
6017;SDS011;3037;51.068;13.780;2023-02-21T01:38:34;2.80;;;2.60;;
6017;SDS011;3037;51.068;13.780;2023-02-21T01:41:18;2.67;;;2.47;;
6017;SDS011;3037;51.068;13.780;2023-02-21T01:44:04;3.43;;;3.07;;
6017;SDS011;3037;51.068;13.780;2023-02-21T01:46:50;3.97;;;3.13;;
6017;SDS011;3037;51.068;13.780;2023-02-21T01:49:35;3.30;;;3.00;;
6017;SDS011;3037;51.068;13.780;2023-02-21T01:52:22;3.53;;;3.03;;
6017;SDS011;3037;51.068;13.780;2023-02-21T01:55:07;3.03;;;2.83;;
6017;SDS011;3037;51.068;13.780;2023-02-21T01:57:52;3.20;;;3.00;;
6017;SDS011;3037;51.068;13.780;2023-02-21T02:00:38;2.50;;;2.30;;
6017;SDS011;3037;51.068;13.780;2023-02-21T02:03:23;2.80;;;2.60;;
6017;SDS011;3037;51.068;13.780;2023-02-21T02:06:09;3.27;;;3.00;;
6017;SDS011;3037;51.068;13.780;2023-02-21T02:08:56;9.63;;;2.60;;
6017;SDS011;3037;51.068;13.780;2023-02-21T02:17:52;2.87;;;2.67;;
6017;SDS011;3037;51.068;13.780;2023-02-21T02:37:34;3.27;;;2.97;;
6017;SDS011;3037;51.068;13.780;2023-02-21T02:46:12;4.60;;;3.10;;
6017;SDS011;3037;51.068;13.780;2023-02-21T02:48:45;3.50;;;2.93;;
6017;SDS011;3037;51.068;13.780;2023-02-21T02:51:17;3.27;;;3.07;;
6017;SDS011;3037;51.068;13.780;2023-02-21T02:53:43;3.90;;;3.60;;
6017;SDS011;3037;51.068;13.780;2023-02-21T02:56:09;2.70;;;2.50;;
6017;SDS011;3037;51.068;13.780;2023-02-21T02:58:43;3.30;;;2.57;;
6017;SDS011;3037;51.068;13.780;2023-02-21T03:04:19;6.10;;;3.07;;
6017;SDS011;3037;51.068;13.780;2023-02-21T03:12:42;2.90;;;2.63;;
6017;SDS011;3037;51.068;13.780;2023-02-21T03:15:16;4.27;;;2.90;;
6017;SDS011;3037;51.068;13.780;2023-02-21T03:18:20;2.27;;;2.17;;
6017;SDS011;3037;51.068;13.780;2023-02-21T03:20:55;2.50;;;2.40;;
6017;SDS011;3037;51.068;13.780;2023-02-21T03:23:24;2.43;;;2.33;;
6017;SDS011;3037;51.068;13.780;2023-02-21T03:25:52;3.77;;;2.83;;
6017;SDS011;3037;51.068;13.780;2023-02-21T03:28:24;3.10;;;2.80;;
6017;SDS011;3037;51.068;13.780;2023-02-21T03:30:51;3.30;;;2.57;;
6017;SDS011;3037;51.068;13.780;2023-02-21T03:33:20;3.23;;;3.00;;
6017;SDS011;3037;51.068;13.780;2023-02-21T03:35:46;4.50;;;3.10;;
6017;SDS011;3037;51.068;13.780;2023-02-21T03:38:12;5.90;;;3.80;;
6017;SDS011;3037;51.068;13.780;2023-02-21T03:40:37;4.10;;;3.70;;
6017;SDS011;3037;51.068;13.780;2023-02-21T03:43:03;4.57;;;4.00;;
6017;SDS011;3037;51.068;13.780;2023-02-21T03:45:33;3.53;;;3.13;;
6017;SDS011;3037;51.068;13.780;2023-02-21T03:48:00;4.17;;;3.77;;
6017;SDS011;3037;51.068;13.780;2023-02-21T03:50:26;3.67;;;2.70;;
6017;SDS011;3037;51.068;13.780;2023-02-21T03:52:51;4.60;;;2.83;;
6017;SDS011;3037;51.068;13.780;2023-02-21T03:55:17;14.13;;;3.67;;
6017;SDS011;3037;51.068;13.780;2023-02-21T03:57:43;4.20;;;3.50;;
6017;SDS011;3037;51.068;13.780;2023-02-21T04:00:09;9.47;;;3.43;;
6017;SDS011;3037;51.068;13.780;2023-02-21T04:02:36;3.07;;;2.90;;
6017;SDS011;3037;51.068;13.780;2023-02-21T04:05:02;3.90;;;3.60;;
6017;SDS011;3037;51.068;13.780;2023-02-21T04:07:28;3.53;;;3.13;;
6017;SDS011;3037;51.068;13.780;2023-02-21T04:09:53;4.63;;;4.00;;
6017;SDS011;3037;51.068;13.780;2023-02-21T04:12:20;4.80;;;4.30;;
6017;SDS011;3037;51.068;13.780;2023-02-21T04:14:45;4.50;;;4.10;;
6017;SDS011;3037;51.068;13.780;2023-02-21T04:17:11;4.57;;;4.17;;
6017;SDS011;3037;51.068;13.780;2023-02-21T04:19:37;5.80;;;4.00;;
6017;SDS011;3037;51.068;13.780;2023-02-21T04:22:02;3.70;;;3.40;;
6017;SDS011;3037;51.068;13.780;2023-02-21T04:24:27;6.00;;;4.40;;
6017;SDS011;3037;51.068;13.780;2023-02-21T04:26:53;4.50;;;4.10;;
6017;SDS011;3037;51.068;13.780;2023-02-21T04:29:19;3.77;;;3.47;;
6017;SDS011;3037;51.068;13.780;2023-02-21T04:31:44;4.90;;;4.40;;
6017;SDS011;3037;51.068;13.780;2023-02-21T04:34:10;4.80;;;4.43;;
6017;SDS011;3037;51.068;13.780;2023-02-21T04:36:35;4.63;;;4.10;;
6017;SDS011;3037;51.068;13.780;2023-02-21T04:39:04;6.90;;;4.67;;
6017;SDS011;3037;51.068;13.780;2023-02-21T04:41:30;5.60;;;4.03;;
6017;SDS011;3037;51.068;13.780;2023-02-21T04:43:56;4.83;;;4.27;;
6017;SDS011;3037;51.068;13.780;2023-02-21T04:46:21;6.63;;;4.73;;
6017;SDS011;3037;51.068;13.780;2023-02-21T04:48:47;5.27;;;4.43;;
6017;SDS011;3037;51.068;13.780;2023-02-21T04:51:14;5.23;;;4.73;;
6017;SDS011;3037;51.068;13.780;2023-02-21T04:53:42;4.83;;;4.40;;
6017;SDS011;3037;51.068;13.780;2023-02-21T04:56:10;5.10;;;4.60;;
6017;SDS011;3037;51.068;13.780;2023-02-21T04:58:36;8.80;;;5.20;;
6017;SDS011;3037;51.068;13.780;2023-02-21T05:01:02;5.50;;;4.93;;
6017;SDS011;3037;51.068;13.780;2023-02-21T05:03:28;6.17;;;5.57;;
6017;SDS011;3037;51.068;13.780;2023-02-21T05:05:54;7.50;;;5.60;;
6017;SDS011;3037;51.068;13.780;2023-02-21T05:08:19;5.13;;;4.73;;
6017;SDS011;3037;51.068;13.780;2023-02-21T05:10:45;10.17;;;5.63;;
6017;SDS011;3037;51.068;13.780;2023-02-21T05:13:11;6.33;;;5.40;;
6017;SDS011;3037;51.068;13.780;2023-02-21T05:15:37;8.23;;;5.90;;
6017;SDS011;3037;51.068;13.780;2023-02-21T05:18:03;8.40;;;5.63;;
6017;SDS011;3037;51.068;13.780;2023-02-21T05:20:28;8.13;;;6.10;;
6017;SDS011;3037;51.068;13.780;2023-02-21T05:22:53;9.13;;;6.20;;
6017;SDS011;3037;51.068;13.780;2023-02-21T05:25:20;5.70;;;5.20;;
6017;SDS011;3037;51.068;13.780;2023-02-21T05:27:47;5.70;;;5.10;;
6017;SDS011;3037;51.068;13.780;2023-02-21T05:30:15;6.13;;;5.53;;
6017;SDS011;3037;51.068;13.780;2023-02-21T05:32:41;6.53;;;5.90;;
6017;SDS011;3037;51.068;13.780;2023-02-21T05:35:07;10.50;;;6.40;;
6017;SDS011;3037;51.068;13.780;2023-02-21T05:37:34;6.20;;;5.60;;
6017;SDS011;3037;51.068;13.780;2023-02-21T05:39:59;6.53;;;5.80;;
6017;SDS011;3037;51.068;13.780;2023-02-21T05:42:25;9.73;;;6.30;;
6017;SDS011;3037;51.068;13.780;2023-02-21T05:44:50;11.17;;;6.80;;
6017;SDS011;3037;51.068;13.780;2023-02-21T05:47:16;6.97;;;5.47;;
6017;SDS011;3037;51.068;13.780;2023-02-21T05:49:42;6.27;;;5.37;;
6017;SDS011;3037;51.068;13.780;2023-02-21T05:52:11;6.77;;;5.67;;
6017;SDS011;3037;51.068;13.780;2023-02-21T05:54:37;7.30;;;6.40;;
6017;SDS011;3037;51.068;13.780;2023-02-21T05:57:03;6.70;;;6.00;;
6017;SDS011;3037;51.068;13.780;2023-02-21T05:59:28;7.20;;;6.27;;
6017;SDS011;3037;51.068;13.780;2023-02-21T06:01:54;11.00;;;6.53;;
6017;SDS011;3037;51.068;13.780;2023-02-21T06:04:20;10.20;;;6.50;;
6017;SDS011;3037;51.068;13.780;2023-02-21T06:06:46;10.80;;;6.03;;
6017;SDS011;3037;51.068;13.780;2023-02-21T06:09:12;7.73;;;6.93;;
6017;SDS011;3037;51.068;13.780;2023-02-21T06:11:38;7.20;;;5.80;;
6017;SDS011;3037;51.068;13.780;2023-02-21T06:14:06;8.00;;;6.27;;
6017;SDS011;3037;51.068;13.780;2023-02-21T06:16:36;8.53;;;6.40;;
6017;SDS011;3037;51.068;13.780;2023-02-21T06:19:03;8.43;;;6.90;;
6017;SDS011;3037;51.068;13.780;2023-02-21T06:21:31;7.97;;;6.30;;
6017;SDS011;3037;51.068;13.780;2023-02-21T06:23:57;9.10;;;7.07;;
6017;SDS011;3037;51.068;13.780;2023-02-21T06:26:23;9.07;;;6.03;;
6017;SDS011;3037;51.068;13.780;2023-02-21T06:28:48;10.73;;;6.93;;
6017;SDS011;3037;51.068;13.780;2023-02-21T06:31:15;8.77;;;6.20;;
6017;SDS011;3037;51.068;13.780;2023-02-21T06:33:43;8.40;;;6.53;;
6017;SDS011;3037;51.068;13.780;2023-02-21T06:36:12;8.27;;;7.00;;
6017;SDS011;3037;51.068;13.780;2023-02-21T06:38:42;9.57;;;7.13;;
6017;SDS011;3037;51.068;13.780;2023-02-21T06:41:10;11.70;;;7.77;;
6017;SDS011;3037;51.068;13.780;2023-02-21T06:43:35;8.50;;;6.50;;
6017;SDS011;3037;51.068;13.780;2023-02-21T06:46:01;7.90;;;6.40;;
6017;SDS011;3037;51.068;13.780;2023-02-21T06:48:28;9.47;;;7.13;;
6017;SDS011;3037;51.068;13.780;2023-02-21T06:50:54;7.63;;;6.90;;
6017;SDS011;3037;51.068;13.780;2023-02-21T06:53:19;14.50;;;7.40;;
6017;SDS011;3037;51.068;13.780;2023-02-21T06:55:45;7.70;;;6.40;;
6017;SDS011;3037;51.068;13.780;2023-02-21T06:58:10;10.30;;;7.30;;
6017;SDS011;3037;51.068;13.780;2023-02-21T07:00:36;13.27;;;7.17;;
6017;SDS011;3037;51.068;13.780;2023-02-21T07:03:01;7.90;;;6.40;;
6017;SDS011;3037;51.068;13.780;2023-02-21T07:05:27;12.20;;;7.77;;
6017;SDS011;3037;51.068;13.780;2023-02-21T07:07:53;9.37;;;6.40;;
6017;SDS011;3037;51.068;13.780;2023-02-21T07:10:18;8.17;;;6.53;;
6017;SDS011;3037;51.068;13.780;2023-02-21T07:12:44;11.67;;;8.17;;
6017;SDS011;3037;51.068;13.780;2023-02-21T07:15:09;9.40;;;8.07;;
6017;SDS011;3037;51.068;13.780;2023-02-21T07:17:35;14.27;;;6.97;;
6017;SDS011;3037;51.068;13.780;2023-02-21T07:20:00;7.53;;;6.67;;
6017;SDS011;3037;51.068;13.780;2023-02-21T07:22:26;8.80;;;5.90;;
6017;SDS011;3037;51.068;13.780;2023-02-21T07:24:52;11.47;;;7.80;;
6017;SDS011;3037;51.068;13.780;2023-02-21T07:27:18;12.60;;;8.07;;
6017;SDS011;3037;51.068;13.780;2023-02-21T07:29:47;8.20;;;6.63;;
6017;SDS011;3037;51.068;13.780;2023-02-21T07:32:14;9.97;;;6.73;;
6017;SDS011;3037;51.068;13.780;2023-02-21T07:34:40;9.87;;;6.93;;
6017;SDS011;3037;51.068;13.780;2023-02-21T07:37:07;8.60;;;7.70;;
6017;SDS011;3037;51.068;13.780;2023-02-21T07:39:32;9.30;;;7.23;;
6017;SDS011;3037;51.068;13.780;2023-02-21T07:41:58;9.30;;;7.53;;
6017;SDS011;3037;51.068;13.780;2023-02-21T07:44:24;12.83;;;8.40;;
6017;SDS011;3037;51.068;13.780;2023-02-21T07:46:49;8.87;;;7.80;;
6017;SDS011;3037;51.068;13.780;2023-02-21T07:49:15;9.10;;;7.80;;
6017;SDS011;3037;51.068;13.780;2023-02-21T07:51:40;20.50;;;8.73;;
6017;SDS011;3037;51.068;13.780;2023-02-21T07:54:06;10.00;;;7.70;;
6017;SDS011;3037;51.068;13.780;2023-02-21T07:56:31;14.00;;;8.20;;
6017;SDS011;3037;51.068;13.780;2023-02-21T07:58:57;11.00;;;7.23;;
6017;SDS011;3037;51.068;13.780;2023-02-21T08:01:23;10.93;;;8.77;;
6017;SDS011;3037;51.068;13.780;2023-02-21T08:03:50;11.13;;;7.90;;
6017;SDS011;3037;51.068;13.780;2023-02-21T08:06:15;10.03;;;7.83;;
6017;SDS011;3037;51.068;13.780;2023-02-21T08:08:42;13.70;;;9.23;;
6017;SDS011;3037;51.068;13.780;2023-02-21T08:11:07;15.63;;;9.03;;
6017;SDS011;3037;51.068;13.780;2023-02-21T08:13:33;11.20;;;8.03;;
6017;SDS011;3037;51.068;13.780;2023-02-21T08:15:58;15.50;;;9.30;;
6017;SDS011;3037;51.068;13.780;2023-02-21T08:18:24;12.10;;;8.40;;
6017;SDS011;3037;51.068;13.780;2023-02-21T08:20:50;12.10;;;8.40;;
6017;SDS011;3037;51.068;13.780;2023-02-21T08:23:16;13.10;;;8.50;;
6017;SDS011;3037;51.068;13.780;2023-02-21T08:25:42;21.77;;;8.90;;
6017;SDS011;3037;51.068;13.780;2023-02-21T08:28:09;13.30;;;8.30;;
6017;SDS011;3037;51.068;13.780;2023-02-21T08:30:34;15.43;;;10.40;;
6017;SDS011;3037;51.068;13.780;2023-02-21T08:33:00;12.43;;;8.73;;
6017;SDS011;3037;51.068;13.780;2023-02-21T08:35:25;16.00;;;9.43;;
6017;SDS011;3037;51.068;13.780;2023-02-21T08:37:51;18.67;;;10.27;;
6017;SDS011;3037;51.068;13.780;2023-02-21T08:40:20;14.67;;;9.30;;
6017;SDS011;3037;51.068;13.780;2023-02-21T08:42:50;13.03;;;8.70;;
6017;SDS011;3037;51.068;13.780;2023-02-21T08:45:17;14.90;;;8.73;;
6017;SDS011;3037;51.068;13.780;2023-02-21T08:47:44;11.87;;;9.20;;
6017;SDS011;3037;51.068;13.780;2023-02-21T08:50:10;10.27;;;7.73;;
6017;SDS011;3037;51.068;13.780;2023-02-21T08:52:36;16.30;;;8.80;;
6017;SDS011;3037;51.068;13.780;2023-02-21T08:55:01;13.33;;;8.13;;
6017;SDS011;3037;51.068;13.780;2023-02-21T08:57:27;20.33;;;8.70;;
6017;SDS011;3037;51.068;13.780;2023-02-21T08:59:53;12.40;;;8.67;;
6017;SDS011;3037;51.068;13.780;2023-02-21T09:02:20;11.50;;;7.90;;
6017;SDS011;3037;51.068;13.780;2023-02-21T09:04:49;12.87;;;8.40;;
6017;SDS011;3037;51.068;13.780;2023-02-21T09:07:16;15.83;;;8.90;;
6017;SDS011;3037;51.068;13.780;2023-02-21T09:09:43;12.27;;;8.07;;
6017;SDS011;3037;51.068;13.780;2023-02-21T09:12:09;11.53;;;7.90;;
6017;SDS011;3037;51.068;13.780;2023-02-21T09:14:36;9.40;;;7.57;;
6017;SDS011;3037;51.068;13.780;2023-02-21T09:17:03;15.20;;;8.00;;
6017;SDS011;3037;51.068;13.780;2023-02-21T09:19:29;12.10;;;7.80;;
6017;SDS011;3037;51.068;13.780;2023-02-21T09:21:55;14.97;;;9.43;;
6017;SDS011;3037;51.068;13.780;2023-02-21T09:24:21;11.53;;;7.23;;
6017;SDS011;3037;51.068;13.780;2023-02-21T09:26:50;13.60;;;8.60;;
6017;SDS011;3037;51.068;13.780;2023-02-21T09:29:19;11.17;;;8.00;;
6017;SDS011;3037;51.068;13.780;2023-02-21T09:31:46;8.97;;;6.43;;
6017;SDS011;3037;51.068;13.780;2023-02-21T09:34:13;9.37;;;6.67;;
6017;SDS011;3037;51.068;13.780;2023-02-21T09:36:39;14.43;;;8.47;;
6017;SDS011;3037;51.068;13.780;2023-02-21T09:39:05;9.30;;;7.47;;
6017;SDS011;3037;51.068;13.780;2023-02-21T09:41:31;9.60;;;7.90;;
6017;SDS011;3037;51.068;13.780;2023-02-21T09:43:58;11.60;;;7.53;;
6017;SDS011;3037;51.068;13.780;2023-02-21T09:48:58;10.00;;;7.63;;
6017;SDS011;3037;51.068;13.780;2023-02-21T09:51:26;9.83;;;7.93;;
6017;SDS011;3037;51.068;13.780;2023-02-21T09:53:53;12.77;;;7.87;;
6017;SDS011;3037;51.068;13.780;2023-02-21T09:56:25;8.70;;;7.03;;
6017;SDS011;3037;51.068;13.780;2023-02-21T09:58:54;12.97;;;7.67;;
6017;SDS011;3037;51.068;13.780;2023-02-21T10:04:30;10.00;;;7.27;;
6017;SDS011;3037;51.068;13.780;2023-02-21T10:07:21;9.97;;;6.97;;
6017;SDS011;3037;51.068;13.780;2023-02-21T10:09:58;10.73;;;7.17;;
6017;SDS011;3037;51.068;13.780;2023-02-21T10:12:33;10.47;;;7.67;;
6017;SDS011;3037;51.068;13.780;2023-02-21T10:18:47;10.10;;;7.47;;
6017;SDS011;3037;51.068;13.780;2023-02-21T10:20:52;8.90;;;7.00;;
6017;SDS011;3037;51.068;13.780;2023-02-21T10:23:28;7.63;;;6.40;;
6017;SDS011;3037;51.068;13.780;2023-02-21T10:26:04;11.67;;;7.10;;
6017;SDS011;3037;51.068;13.780;2023-02-21T10:28:35;27.60;;;13.90;;
6017;SDS011;3037;51.068;13.780;2023-02-21T10:31:03;16.43;;;9.03;;
6017;SDS011;3037;51.068;13.780;2023-02-21T10:33:33;10.87;;;7.20;;
6017;SDS011;3037;51.068;13.780;2023-02-21T10:36:05;13.63;;;6.93;;
6017;SDS011;3037;51.068;13.780;2023-02-21T10:38:43;9.20;;;7.53;;
6017;SDS011;3037;51.068;13.780;2023-02-21T10:41:24;14.03;;;8.10;;
6017;SDS011;3037;51.068;13.780;2023-02-21T10:43:55;8.97;;;7.07;;
6017;SDS011;3037;51.068;13.780;2023-02-21T10:46:36;8.90;;;6.57;;
6017;SDS011;3037;51.068;13.780;2023-02-21T10:49:19;13.00;;;6.90;;
6017;SDS011;3037;51.068;13.780;2023-02-21T10:52:03;12.00;;;7.93;;
6017;SDS011;3037;51.068;13.780;2023-02-21T10:54:32;10.90;;;6.90;;
6017;SDS011;3037;51.068;13.780;2023-02-21T10:56:58;8.70;;;6.40;;
6017;SDS011;3037;51.068;13.780;2023-02-21T10:59:26;13.50;;;7.30;;
6017;SDS011;3037;51.068;13.780;2023-02-21T11:01:54;11.60;;;6.97;;
6017;SDS011;3037;51.068;13.780;2023-02-21T11:06:50;12.47;;;7.93;;
6017;SDS011;3037;51.068;13.780;2023-02-21T11:12:03;9.23;;;6.20;;
6017;SDS011;3037;51.068;13.780;2023-02-21T11:14:29;8.20;;;6.90;;
6017;SDS011;3037;51.068;13.780;2023-02-21T11:17:15;8.50;;;7.07;;
6017;SDS011;3037;51.068;13.780;2023-02-21T11:19:54;15.23;;;6.50;;
6017;SDS011;3037;51.068;13.780;2023-02-21T11:22:40;11.83;;;7.33;;
6017;SDS011;3037;51.068;13.780;2023-02-21T11:27:43;16.67;;;6.67;;
6017;SDS011;3037;51.068;13.780;2023-02-21T11:30:21;11.27;;;6.97;;
6017;SDS011;3037;51.068;13.780;2023-02-21T11:32:51;9.20;;;7.23;;
6017;SDS011;3037;51.068;13.780;2023-02-21T11:37:49;10.60;;;7.83;;
6017;SDS011;3037;51.068;13.780;2023-02-21T11:40:25;8.50;;;6.67;;
6017;SDS011;3037;51.068;13.780;2023-02-21T11:43:09;7.67;;;5.97;;
6017;SDS011;3037;51.068;13.780;2023-02-21T11:45:37;11.17;;;8.03;;
6017;SDS011;3037;51.068;13.780;2023-02-21T11:48:12;11.30;;;7.93;;
6017;SDS011;3037;51.068;13.780;2023-02-21T11:50:42;9.17;;;6.67;;
6017;SDS011;3037;51.068;13.780;2023-02-21T11:55:43;10.93;;;6.73;;
6017;SDS011;3037;51.068;13.780;2023-02-21T11:58:37;10.57;;;6.63;;
6017;SDS011;3037;51.068;13.780;2023-02-21T12:01:42;11.80;;;7.07;;
6017;SDS011;3037;51.068;13.780;2023-02-21T12:04:46;9.87;;;6.77;;
6017;SDS011;3037;51.068;13.780;2023-02-21T12:07:29;6.80;;;5.80;;
6017;SDS011;3037;51.068;13.780;2023-02-21T12:13:17;13.63;;;8.37;;
6017;SDS011;3037;51.068;13.780;2023-02-21T12:16:15;10.47;;;7.67;;
6017;SDS011;3037;51.068;13.780;2023-02-21T12:19:15;14.77;;;8.40;;
6017;SDS011;3037;51.068;13.780;2023-02-21T12:22:33;8.20;;;6.10;;
6017;SDS011;3037;51.068;13.780;2023-02-21T12:28:29;10.10;;;6.00;;
6017;SDS011;3037;51.068;13.780;2023-02-21T12:37:04;9.47;;;6.67;;
6017;SDS011;3037;51.068;13.780;2023-02-21T12:40:07;10.20;;;6.80;;
6017;SDS011;3037;51.068;13.780;2023-02-21T12:45:43;9.40;;;6.43;;
6017;SDS011;3037;51.068;13.780;2023-02-21T12:48:35;5.97;;;5.37;;
6017;SDS011;3037;51.068;13.780;2023-02-21T12:51:07;6.87;;;5.43;;
6017;SDS011;3037;51.068;13.780;2023-02-21T12:56:23;7.13;;;6.37;;
6017;SDS011;3037;51.068;13.780;2023-02-21T12:59:16;7.93;;;5.70;;
6017;SDS011;3037;51.068;13.780;2023-02-21T13:01:52;10.83;;;6.03;;
6017;SDS011;3037;51.068;13.780;2023-02-21T13:04:43;9.27;;;6.47;;
6017;SDS011;3037;51.068;13.780;2023-02-21T13:07:42;7.73;;;6.10;;
6017;SDS011;3037;51.068;13.780;2023-02-21T13:10:19;6.60;;;5.90;;
6017;SDS011;3037;51.068;13.780;2023-02-21T13:13:00;11.33;;;6.40;;
6017;SDS011;3037;51.068;13.780;2023-02-21T13:15:28;7.00;;;6.30;;
6017;SDS011;3037;51.068;13.780;2023-02-21T13:18:05;8.27;;;6.57;;
6017;SDS011;3037;51.068;13.780;2023-02-21T13:20:54;8.87;;;6.10;;
6017;SDS011;3037;51.068;13.780;2023-02-21T13:26:32;9.50;;;6.77;;
6017;SDS011;3037;51.068;13.780;2023-02-21T13:29:18;6.80;;;5.90;;
6017;SDS011;3037;51.068;13.780;2023-02-21T13:31:48;8.13;;;6.10;;
6017;SDS011;3037;51.068;13.780;2023-02-21T13:34:24;7.70;;;6.30;;
6017;SDS011;3037;51.068;13.780;2023-02-21T13:36:53;7.63;;;6.33;;
6017;SDS011;3037;51.068;13.780;2023-02-21T13:39:30;7.40;;;5.67;;
6017;SDS011;3037;51.068;13.780;2023-02-21T13:42:03;12.90;;;7.83;;
6017;SDS011;3037;51.068;13.780;2023-02-21T13:44:50;13.00;;;6.30;;
6017;SDS011;3037;51.068;13.780;2023-02-21T13:55:32;6.63;;;6.00;;
6017;SDS011;3037;51.068;13.780;2023-02-21T14:08:18;10.53;;;6.20;;
6017;SDS011;3037;51.068;13.780;2023-02-21T14:18:50;9.97;;;6.27;;
6017;SDS011;3037;51.068;13.780;2023-02-21T14:21:28;8.40;;;6.17;;
6017;SDS011;3037;51.068;13.780;2023-02-21T14:24:00;10.83;;;6.27;;
6017;SDS011;3037;51.068;13.780;2023-02-21T14:31:50;11.70;;;7.07;;
6017;SDS011;3037;51.068;13.780;2023-02-21T14:34:26;14.40;;;6.60;;
6017;SDS011;3037;51.068;13.780;2023-02-21T14:36:57;10.00;;;6.83;;
6017;SDS011;3037;51.068;13.780;2023-02-21T14:39:30;9.77;;;6.27;;
6017;SDS011;3037;51.068;13.780;2023-02-21T14:42:15;11.97;;;6.53;;
6017;SDS011;3037;51.068;13.780;2023-02-21T14:45:06;13.30;;;6.13;;
6017;SDS011;3037;51.068;13.780;2023-02-21T14:53:51;7.67;;;6.07;;
6017;SDS011;3037;51.068;13.780;2023-02-21T14:56:36;9.77;;;6.10;;
6017;SDS011;3037;51.068;13.780;2023-02-21T15:01:57;9.70;;;6.40;;
6017;SDS011;3037;51.068;13.780;2023-02-21T15:07:11;9.90;;;5.50;;
6017;SDS011;3037;51.068;13.780;2023-02-21T15:09:43;7.13;;;6.43;;
6017;SDS011;3037;51.068;13.780;2023-02-21T15:12:12;6.93;;;5.53;;
6017;SDS011;3037;51.068;13.780;2023-02-21T15:14:46;7.43;;;5.63;;
6017;SDS011;3037;51.068;13.780;2023-02-21T15:17:21;7.70;;;6.47;;
6017;SDS011;3037;51.068;13.780;2023-02-21T15:22:54;10.90;;;6.77;;
6017;SDS011;3037;51.068;13.780;2023-02-21T15:25:20;11.00;;;6.87;;
6017;SDS011;3037;51.068;13.780;2023-02-21T15:30:18;6.90;;;6.00;;
6017;SDS011;3037;51.068;13.780;2023-02-21T15:33:02;7.60;;;5.80;;
6017;SDS011;3037;51.068;13.780;2023-02-21T15:35:32;9.20;;;6.30;;
6017;SDS011;3037;51.068;13.780;2023-02-21T15:38:04;9.20;;;6.80;;
6017;SDS011;3037;51.068;13.780;2023-02-21T15:40:43;8.60;;;6.77;;
6017;SDS011;3037;51.068;13.780;2023-02-21T15:43:16;8.80;;;6.93;;
6017;SDS011;3037;51.068;13.780;2023-02-21T15:45:53;6.03;;;5.43;;
6017;SDS011;3037;51.068;13.780;2023-02-21T15:48:19;10.97;;;6.10;;
6017;SDS011;3037;51.068;13.780;2023-02-21T15:50:45;8.97;;;6.00;;
6017;SDS011;3037;51.068;13.780;2023-02-21T15:53:19;11.53;;;6.90;;
6017;SDS011;3037;51.068;13.780;2023-02-21T15:55:47;9.93;;;5.30;;
6017;SDS011;3037;51.068;13.780;2023-02-21T15:58:18;8.87;;;5.50;;
6017;SDS011;3037;51.068;13.780;2023-02-21T16:01:05;7.10;;;5.00;;
6017;SDS011;3037;51.068;13.780;2023-02-21T16:03:41;9.23;;;5.27;;
6017;SDS011;3037;51.068;13.780;2023-02-21T16:06:09;7.80;;;5.40;;
6017;SDS011;3037;51.068;13.780;2023-02-21T16:08:54;8.77;;;6.40;;
6017;SDS011;3037;51.068;13.780;2023-02-21T16:14:12;7.00;;;5.50;;
6017;SDS011;3037;51.068;13.780;2023-02-21T16:16:44;7.73;;;5.43;;
6017;SDS011;3037;51.068;13.780;2023-02-21T16:19:10;9.70;;;6.33;;
6017;SDS011;3037;51.068;13.780;2023-02-21T16:21:36;9.40;;;5.80;;
6017;SDS011;3037;51.068;13.780;2023-02-21T16:24:26;6.27;;;5.70;;
6017;SDS011;3037;51.068;13.780;2023-02-21T16:27:01;11.53;;;5.73;;
6017;SDS011;3037;51.068;13.780;2023-02-21T16:29:27;11.30;;;6.07;;
6017;SDS011;3037;51.068;13.780;2023-02-21T16:31:53;4.67;;;4.27;;
6017;SDS011;3037;51.068;13.780;2023-02-21T16:34:18;6.23;;;5.40;;
6017;SDS011;3037;51.068;13.780;2023-02-21T16:36:44;10.70;;;5.77;;
6017;SDS011;3037;51.068;13.780;2023-02-21T16:39:09;13.60;;;5.33;;
6017;SDS011;3037;51.068;13.780;2023-02-21T16:41:35;9.13;;;4.93;;
6017;SDS011;3037;51.068;13.780;2023-02-21T16:44:01;7.03;;;5.97;;
6017;SDS011;3037;51.068;13.780;2023-02-21T16:46:26;12.17;;;6.00;;
6017;SDS011;3037;51.068;13.780;2023-02-21T16:48:52;6.30;;;5.67;;
6017;SDS011;3037;51.068;13.780;2023-02-21T16:51:19;7.07;;;5.60;;
6017;SDS011;3037;51.068;13.780;2023-02-21T16:53:45;6.87;;;5.33;;
6017;SDS011;3037;51.068;13.780;2023-02-21T16:56:11;7.23;;;5.60;;
6017;SDS011;3037;51.068;13.780;2023-02-21T16:58:38;8.90;;;6.00;;
6017;SDS011;3037;51.068;13.780;2023-02-21T17:01:10;8.20;;;6.40;;
6017;SDS011;3037;51.068;13.780;2023-02-21T17:03:38;7.27;;;5.90;;
6017;SDS011;3037;51.068;13.780;2023-02-21T17:06:04;7.87;;;5.50;;
6017;SDS011;3037;51.068;13.780;2023-02-21T17:08:30;7.67;;;5.90;;
6017;SDS011;3037;51.068;13.780;2023-02-21T17:10:56;6.47;;;5.30;;
6017;SDS011;3037;51.068;13.780;2023-02-21T17:13:22;7.37;;;6.07;;
6017;SDS011;3037;51.068;13.780;2023-02-21T17:15:48;7.93;;;5.63;;
6017;SDS011;3037;51.068;13.780;2023-02-21T17:18:16;11.27;;;6.03;;
6017;SDS011;3037;51.068;13.780;2023-02-21T17:20:42;7.60;;;5.30;;
6017;SDS011;3037;51.068;13.780;2023-02-21T17:23:07;6.53;;;5.70;;
6017;SDS011;3037;51.068;13.780;2023-02-21T17:25:33;8.40;;;5.50;;
6017;SDS011;3037;51.068;13.780;2023-02-21T17:28:00;7.80;;;5.87;;
6017;SDS011;3037;51.068;13.780;2023-02-21T17:30:26;9.33;;;5.80;;
6017;SDS011;3037;51.068;13.780;2023-02-21T17:32:52;8.50;;;5.20;;
6017;SDS011;3037;51.068;13.780;2023-02-21T17:35:18;6.30;;;5.53;;
6017;SDS011;3037;51.068;13.780;2023-02-21T17:37:46;7.27;;;5.80;;
6017;SDS011;3037;51.068;13.780;2023-02-21T17:40:13;6.93;;;5.50;;
6017;SDS011;3037;51.068;13.780;2023-02-21T17:42:41;8.77;;;6.60;;